sensor_id;sensor_type;location;lat;lon;timestamp;pressure;altitude;pressure_sealevel;temperature
76583;BMP280;65462;52.148;7.940;2023-02-02T00:01:16;100937.72;;;4.68
76583;BMP280;65462;52.148;7.940;2023-02-02T00:03:41;100932.22;;;4.64
76583;BMP280;65462;52.148;7.940;2023-02-02T00:06:07;100934.28;;;4.62
76583;BMP280;65462;52.148;7.940;2023-02-02T00:08:32;100931.97;;;4.61
76583;BMP280;65462;52.148;7.940;2023-02-02T00:11:00;100925.44;;;4.58
76583;BMP280;65462;52.148;7.940;2023-02-02T00:13:25;100933.53;;;4.57
76583;BMP280;65462;52.148;7.940;2023-02-02T00:15:52;100928.56;;;4.55
76583;BMP280;65462;52.148;7.940;2023-02-02T00:18:17;100932.50;;;4.53
76583;BMP280;65462;52.148;7.940;2023-02-02T00:20:42;100929.34;;;4.56
76583;BMP280;65462;52.148;7.940;2023-02-02T00:23:09;100931.44;;;4.54
76583;BMP280;65462;52.148;7.940;2023-02-02T00:25:34;100922.31;;;4.51
76583;BMP280;65462;52.148;7.940;2023-02-02T00:28:00;100931.44;;;4.54
76583;BMP280;65462;52.148;7.940;2023-02-02T00:30:25;100927.31;;;4.47
76583;BMP280;65462;52.148;7.940;2023-02-02T00:32:50;100938.03;;;4.51
76583;BMP280;65462;52.148;7.940;2023-02-02T00:35:17;100937.22;;;4.51
76583;BMP280;65462;52.148;7.940;2023-02-02T00:37:43;100929.63;;;4.49
76583;BMP280;65462;52.148;7.940;2023-02-02T00:40:09;100935.66;;;4.49
76583;BMP280;65462;52.148;7.940;2023-02-02T00:42:34;100929.91;;;4.53
76583;BMP280;65462;52.148;7.940;2023-02-02T00:45:00;100941.97;;;4.48
76583;BMP280;65462;52.148;7.940;2023-02-02T00:47:47;100920.75;;;4.50
76583;BMP280;65462;52.148;7.940;2023-02-02T00:50:18;100934.38;;;4.52
76583;BMP280;65462;52.148;7.940;2023-02-02T00:52:45;100927.78;;;4.55
76583;BMP280;65462;52.148;7.940;2023-02-02T00:55:11;100932.75;;;4.56
76583;BMP280;65462;52.148;7.940;2023-02-02T00:57:37;100932.22;;;4.54
76583;BMP280;65462;52.148;7.940;2023-02-02T01:00:04;100939.03;;;4.55
76583;BMP280;65462;52.148;7.940;2023-02-02T01:02:31;100947.66;;;4.56
76583;BMP280;65462;52.148;7.940;2023-02-02T01:04:56;100950.56;;;4.49
76583;BMP280;65462;52.148;7.940;2023-02-02T01:07:22;100958.94;;;4.46
76583;BMP280;65462;52.148;7.940;2023-02-02T01:09:47;100957.38;;;4.45
76583;BMP280;65462;52.148;7.940;2023-02-02T01:12:12;100957.63;;;4.43
76583;BMP280;65462;52.148;7.940;2023-02-02T01:14:38;100955.81;;;4.39
76583;BMP280;65462;52.148;7.940;2023-02-02T01:17:03;100968.13;;;4.38
76583;BMP280;65462;52.148;7.940;2023-02-02T01:19:29;100964.72;;;4.38
76583;BMP280;65462;52.148;7.940;2023-02-02T01:21:54;100950.06;;;4.27
76583;BMP280;65462;52.148;7.940;2023-02-02T01:24:20;100962.34;;;4.36
76583;BMP280;65462;52.148;7.940;2023-02-02T01:26:45;100968.91;;;4.34
76583;BMP280;65462;52.148;7.940;2023-02-02T01:29:10;100956.63;;;4.34
76583;BMP280;65462;52.148;7.940;2023-02-02T01:31:36;100963.41;;;4.30
76583;BMP280;65462;52.148;7.940;2023-02-02T01:34:02;100958.97;;;4.31
76583;BMP280;65462;52.148;7.940;2023-02-02T01:36:27;100965.53;;;4.28
76583;BMP280;65462;52.148;7.940;2023-02-02T01:38:53;100965.75;;;4.27
76583;BMP280;65462;52.148;7.940;2023-02-02T01:41:22;100964.72;;;4.28
76583;BMP280;65462;52.148;7.940;2023-02-02T01:48:58;100971.28;;;4.25
76583;BMP280;65462;52.148;7.940;2023-02-02T01:51:37;100975.97;;;4.23
76583;BMP280;65462;52.148;7.940;2023-02-02T01:54:06;100976.75;;;4.19
76583;BMP280;65462;52.148;7.940;2023-02-02T01:56:37;100975.72;;;4.20
76583;BMP280;65462;52.148;7.940;2023-02-02T01:59:04;100979.63;;;4.17
76583;BMP280;65462;52.148;7.940;2023-02-02T02:01:30;100989.03;;;4.18
76583;BMP280;65462;52.148;7.940;2023-02-02T02:03:55;100989.81;;;4.19
76583;BMP280;65462;52.148;7.940;2023-02-02T02:06:21;100991.91;;;4.22
76583;BMP280;65462;52.148;7.940;2023-02-02T02:08:59;100989.03;;;4.23
76583;BMP280;65462;52.148;7.940;2023-02-02T02:11:26;100988.78;;;4.25
76583;BMP280;65462;52.148;7.940;2023-02-02T02:14:01;100991.13;;;4.26
76583;BMP280;65462;52.148;7.940;2023-02-02T02:26:14;101003.41;;;4.36
76583;BMP280;65462;52.148;7.940;2023-02-02T02:37:28;101000.81;;;4.51
76583;BMP280;65462;52.148;7.940;2023-02-02T02:40:31;101010.72;;;4.54
76583;BMP280;65462;52.148;7.940;2023-02-02T02:43:06;101002.38;;;4.52
76583;BMP280;65462;52.148;7.940;2023-02-02T02:45:34;101014.38;;;4.53
76583;BMP280;65462;52.148;7.940;2023-02-02T02:48:01;101005.75;;;4.53
76583;BMP280;65462;52.148;7.940;2023-02-02T02:50:27;101008.88;;;4.55
76583;BMP280;65462;52.148;7.940;2023-02-02T02:52:59;101001.28;;;4.58
76583;BMP280;65462;52.148;7.940;2023-02-02T02:55:34;100997.63;;;4.59
76583;BMP280;65462;52.148;7.940;2023-02-02T02:58:07;100999.44;;;4.59
76583;BMP280;65462;52.148;7.940;2023-02-02T03:00:59;100991.59;;;4.59
76583;BMP280;65462;52.148;7.940;2023-02-02T03:03:47;101007.84;;;4.61
76583;BMP280;65462;52.148;7.940;2023-02-02T03:06:22;101001.28;;;4.63
76583;BMP280;65462;52.148;7.940;2023-02-02T03:09:02;100993.44;;;4.63
76583;BMP280;65462;52.148;7.940;2023-02-02T03:11:29;100995.81;;;4.65
76583;BMP280;65462;52.148;7.940;2023-02-02T03:13:55;101001.78;;;4.65
76583;BMP280;65462;52.148;7.940;2023-02-02T03:16:20;100996.06;;;4.68
76583;BMP280;65462;52.148;7.940;2023-02-02T03:18:46;101002.53;;;4.76
76583;BMP280;65462;52.148;7.940;2023-02-02T03:21:11;100990.75;;;4.78
76583;BMP280;65462;52.148;7.940;2023-02-02T03:23:37;100988.69;;;4.80
76583;BMP280;65462;52.148;7.940;2023-02-02T03:26:03;100992.59;;;4.83
76583;BMP280;65462;52.148;7.940;2023-02-02T03:28:29;100994.44;;;4.87
76583;BMP280;65462;52.148;7.940;2023-02-02T03:30:56;100989.72;;;4.89
76583;BMP280;65462;52.148;7.940;2023-02-02T03:33:22;100984.72;;;4.88
76583;BMP280;65462;52.148;7.940;2023-02-02T03:35:48;100989.19;;;4.87
76583;BMP280;65462;52.148;7.940;2023-02-02T03:38:13;100989.44;;;4.86
76583;BMP280;65462;52.148;7.940;2023-02-02T03:40:39;101002.50;;;4.96
76583;BMP280;65462;52.148;7.940;2023-02-02T03:43:04;101001.72;;;4.90
76583;BMP280;65462;52.148;7.940;2023-02-02T03:45:30;101003.28;;;4.96
76583;BMP280;65462;52.148;7.940;2023-02-02T03:47:56;101002.50;;;4.96
76583;BMP280;65462;52.148;7.940;2023-02-02T03:50:22;101005.84;;;5.06
76583;BMP280;65462;52.148;7.940;2023-02-02T03:52:49;101015.25;;;5.07
76583;BMP280;65462;52.148;7.940;2023-02-02T03:55:14;101006.13;;;5.10
76583;BMP280;65462;52.148;7.940;2023-02-02T03:57:39;101005.31;;;5.09
76583;BMP280;65462;52.148;7.940;2023-02-02T04:00:05;101006.13;;;5.10
76583;BMP280;65462;52.148;7.940;2023-02-02T04:02:31;101014.44;;;5.17
76583;BMP280;65462;52.148;7.940;2023-02-02T04:04:56;101013.09;;;5.25
76583;BMP280;65462;52.148;7.940;2023-02-02T04:07:21;101010.47;;;5.25
76583;BMP280;65462;52.148;7.940;2023-02-02T04:09:46;101006.28;;;5.29
76583;BMP280;65462;52.148;7.940;2023-02-02T04:12:12;101014.16;;;5.24
76583;BMP280;65462;52.148;7.940;2023-02-02T04:14:37;101015.47;;;5.26
76583;BMP280;65462;52.148;7.940;2023-02-02T04:17:02;101016.00;;;5.23
76583;BMP280;65462;52.148;7.940;2023-02-02T04:19:27;101005.03;;;5.21
76583;BMP280;65462;52.148;7.940;2023-02-02T04:21:53;101008.91;;;5.29
76583;BMP280;65462;52.148;7.940;2023-02-02T04:24:18;101016.22;;;5.32
76583;BMP280;65462;52.148;7.940;2023-02-02T04:26:43;101014.66;;;5.31
76583;BMP280;65462;52.148;7.940;2023-02-02T04:29:09;101014.41;;;5.32
76583;BMP280;65462;52.148;7.940;2023-02-02T04:31:34;101020.16;;;5.34
76583;BMP280;65462;52.148;7.940;2023-02-02T04:34:00;101023.50;;;5.40
76583;BMP280;65462;52.148;7.940;2023-02-02T04:36:25;101018.75;;;5.52
76583;BMP280;65462;52.148;7.940;2023-02-02T04:38:52;101022.13;;;5.52
76583;BMP280;65462;52.148;7.940;2023-02-02T04:41:18;101026.81;;;5.55
76583;BMP280;65462;52.148;7.940;2023-02-02T04:43:44;101015.53;;;5.60
76583;BMP280;65462;52.148;7.940;2023-02-02T04:46:10;101022.34;;;5.61
76583;BMP280;65462;52.148;7.940;2023-02-02T04:48:36;101012.38;;;5.63
76583;BMP280;65462;52.148;7.940;2023-02-02T04:51:04;101019.44;;;5.62
76583;BMP280;65462;52.148;7.940;2023-02-02T04:53:30;101028.09;;;5.63
76583;BMP280;65462;52.148;7.940;2023-02-02T04:55:56;101024.97;;;5.61
76583;BMP280;65462;52.148;7.940;2023-02-02T04:58:22;101024.19;;;5.60
76583;BMP280;65462;52.148;7.940;2023-02-02T05:00:47;101025.78;;;5.61
76583;BMP280;65462;52.148;7.940;2023-02-02T05:03:12;101016.66;;;5.54
76583;BMP280;65462;52.148;7.940;2023-02-02T05:05:37;101028.88;;;5.63
76583;BMP280;65462;52.148;7.940;2023-02-02T05:08:03;101028.59;;;5.70
76583;BMP280;65462;52.148;7.940;2023-02-02T05:10:28;101037.78;;;5.67
76583;BMP280;65462;52.148;7.940;2023-02-02T05:12:54;101030.41;;;5.75
76583;BMP280;65462;52.148;7.940;2023-02-02T05:15:20;101031.94;;;5.76
76583;BMP280;65462;52.148;7.940;2023-02-02T05:17:46;101039.56;;;5.72
76583;BMP280;65462;52.148;7.940;2023-02-02T05:20:12;101037.72;;;5.72
76583;BMP280;65462;52.148;7.940;2023-02-02T05:22:37;101030.44;;;5.69
76583;BMP280;65462;52.148;7.940;2023-02-02T05:25:03;101027.03;;;5.69
76583;BMP280;65462;52.148;7.940;2023-02-02T05:27:29;101042.47;;;5.70
76583;BMP280;65462;52.148;7.940;2023-02-02T05:29:54;101037.50;;;5.69
76583;BMP280;65462;52.148;7.940;2023-02-02T05:32:19;101042.50;;;5.65
76583;BMP280;65462;52.148;7.940;2023-02-02T05:34:44;101051.19;;;5.61
76583;BMP280;65462;52.148;7.940;2023-02-02T05:37:10;101046.97;;;5.60
76583;BMP280;65462;52.148;7.940;2023-02-02T05:39:35;101068.75;;;5.60
76583;BMP280;65462;52.148;7.940;2023-02-02T05:42:00;101055.88;;;5.59
76583;BMP280;65462;52.148;7.940;2023-02-02T05:44:26;101059.84;;;5.56
76583;BMP280;65462;52.148;7.940;2023-02-02T05:46:51;101059.09;;;5.51
76583;BMP280;65462;52.148;7.940;2023-02-02T05:49:16;101059.59;;;5.53
76583;BMP280;65462;52.148;7.940;2023-02-02T05:51:44;101060.69;;;5.52
76583;BMP280;65462;52.148;7.940;2023-02-02T05:54:09;101066.44;;;5.54
76583;BMP280;65462;52.148;7.940;2023-02-02T05:56:35;101058.81;;;5.52
76583;BMP280;65462;52.148;7.940;2023-02-02T05:59:00;101059.91;;;5.51
76583;BMP280;65462;52.148;7.940;2023-02-02T06:01:25;101064.59;;;5.49
76583;BMP280;65462;52.148;7.940;2023-02-02T06:03:51;101055.19;;;5.48
76583;BMP280;65462;52.148;7.940;2023-02-02T06:06:16;101057.03;;;5.43
76583;BMP280;65462;52.148;7.940;2023-02-02T06:08:41;101059.38;;;5.44
76583;BMP280;65462;52.148;7.940;2023-02-02T06:11:09;101066.72;;;5.47
76583;BMP280;65462;52.148;7.940;2023-02-02T06:13:34;101070.91;;;5.43
76583;BMP280;65462;52.148;7.940;2023-02-02T06:15:59;101068.81;;;5.40
76583;BMP280;65462;52.148;7.940;2023-02-02T06:18:24;101068.34;;;5.38
76583;BMP280;65462;52.148;7.940;2023-02-02T06:20:58;101067.81;;;5.36
76583;BMP280;65462;52.148;7.940;2023-02-02T06:23:23;101067.03;;;5.36
76583;BMP280;65462;52.148;7.940;2023-02-02T06:25:49;101069.66;;;5.36
76583;BMP280;65462;52.148;7.940;2023-02-02T06:28:14;101074.38;;;5.34
76583;BMP280;65462;52.148;7.940;2023-02-02T06:30:39;101078.31;;;5.31
76583;BMP280;65462;52.148;7.940;2023-02-02T06:33:04;101079.34;;;5.30
76583;BMP280;65462;52.148;7.940;2023-02-02T06:35:31;101091.41;;;5.31
76583;BMP280;65462;52.148;7.940;2023-02-02T06:37:56;101088.28;;;5.29
76583;BMP280;65462;52.148;7.940;2023-02-02T06:40:22;101088.00;;;5.26
76583;BMP280;65462;52.148;7.940;2023-02-02T06:42:47;101096.13;;;5.29
76583;BMP280;65462;52.148;7.940;2023-02-02T06:45:12;101102.94;;;5.25
76583;BMP280;65462;52.148;7.940;2023-02-02T06:47:37;101107.91;;;5.27
76583;BMP280;65462;52.148;7.940;2023-02-02T06:50:03;101100.09;;;5.22
76583;BMP280;65462;52.148;7.940;2023-02-02T06:52:28;101102.19;;;5.20
76583;BMP280;65462;52.148;7.940;2023-02-02T06:54:54;101106.38;;;5.21
76583;BMP280;65462;52.148;7.940;2023-02-02T06:57:19;101104.53;;;5.21
76583;BMP280;65462;52.148;7.940;2023-02-02T06:59:44;101107.66;;;5.23
76583;BMP280;65462;52.148;7.940;2023-02-02T07:02:11;101105.31;;;5.22
76583;BMP280;65462;52.148;7.940;2023-02-02T07:04:37;101107.44;;;5.20
76583;BMP280;65462;52.148;7.940;2023-02-02T07:07:03;101109.53;;;5.18
76583;BMP280;65462;52.148;7.940;2023-02-02T07:09:31;101103.25;;;5.19
76583;BMP280;65462;52.148;7.940;2023-02-02T07:11:57;101119.75;;;5.19
76583;BMP280;65462;52.148;7.940;2023-02-02T07:14:22;101119.19;;;5.17
76583;BMP280;65462;52.148;7.940;2023-02-02T07:16:47;101117.66;;;5.16
76583;BMP280;65462;52.148;7.940;2023-02-02T07:19:13;101129.16;;;5.15
76583;BMP280;65462;52.148;7.940;2023-02-02T07:21:38;101127.31;;;5.10
76583;BMP280;65462;52.148;7.940;2023-02-02T07:24:04;101129.44;;;5.08
76583;BMP280;65462;52.148;7.940;2023-02-02T07:26:30;101127.06;;;5.07
76583;BMP280;65462;52.148;7.940;2023-02-02T07:28:55;101120.56;;;5.04
76583;BMP280;65462;52.148;7.940;2023-02-02T07:31:23;101128.91;;;5.06
76583;BMP280;65462;52.148;7.940;2023-02-02T07:33:49;101120.56;;;4.99
76583;BMP280;65462;52.148;7.940;2023-02-02T07:36:17;101130.50;;;4.97
76583;BMP280;65462;52.148;7.940;2023-02-02T07:38:43;101134.44;;;5.00
76583;BMP280;65462;52.148;7.940;2023-02-02T07:41:09;101134.44;;;5.00
76583;BMP280;65462;52.148;7.940;2023-02-02T07:43:34;101133.38;;;5.01
76583;BMP280;65462;52.148;7.940;2023-02-02T07:46:02;101141.78;;;5.03
76583;BMP280;65462;52.148;7.940;2023-02-02T07:48:30;101148.06;;;5.02
76583;BMP280;65462;52.148;7.940;2023-02-02T07:50:59;101145.94;;;5.04
76583;BMP280;65462;52.148;7.940;2023-02-02T07:53:26;101150.41;;;5.03
76583;BMP280;65462;52.148;7.940;2023-02-02T07:55:51;101148.56;;;5.04
76583;BMP280;65462;52.148;7.940;2023-02-02T07:58:16;101153.81;;;4.99
76583;BMP280;65462;52.148;7.940;2023-02-02T08:00:41;101159.28;;;4.97
76583;BMP280;65462;52.148;7.940;2023-02-02T08:03:10;101160.34;;;4.96
76583;BMP280;65462;52.148;7.940;2023-02-02T08:05:36;101161.66;;;4.99
76583;BMP280;65462;52.148;7.940;2023-02-02T08:08:01;101156.19;;;5.00
76583;BMP280;65462;52.148;7.940;2023-02-02T08:10:26;101157.47;;;4.98
76583;BMP280;65462;52.148;7.940;2023-02-02T08:12:51;101165.59;;;4.96
76583;BMP280;65462;52.148;7.940;2023-02-02T08:15:16;101163.50;;;4.98
76583;BMP280;65462;52.148;7.940;2023-02-02T08:17:45;101166.38;;;4.97
76583;BMP280;65462;52.148;7.940;2023-02-02T08:20:11;101169.75;;;4.97
76583;BMP280;65462;52.148;7.940;2023-02-02T08:22:37;101177.38;;;4.99
76583;BMP280;65462;52.148;7.940;2023-02-02T08:25:03;101182.84;;;4.97
76583;BMP280;65462;52.148;7.940;2023-02-02T08:27:29;101181.03;;;4.98
76583;BMP280;65462;52.148;7.940;2023-02-02T08:29:54;101183.13;;;5.01
76583;BMP280;65462;52.148;7.940;2023-02-02T08:32:19;101181.56;;;5.00
76583;BMP280;65462;52.148;7.940;2023-02-02T08:34:47;101173.44;;;5.01
76583;BMP280;65462;52.148;7.940;2023-02-02T08:37:12;101176.34;;;5.00
76583;BMP280;65462;52.148;7.940;2023-02-02T08:39:37;101181.03;;;4.98
76583;BMP280;65462;52.148;7.940;2023-02-02T08:42:03;101182.84;;;4.97
76583;BMP280;65462;52.148;7.940;2023-02-02T08:44:28;101188.63;;;4.99
76583;BMP280;65462;52.148;7.940;2023-02-02T08:46:53;101193.88;;;4.99
76583;BMP280;65462;52.148;7.940;2023-02-02T08:49:19;101192.56;;;5.02
76583;BMP280;65462;52.148;7.940;2023-02-02T08:51:44;101196.75;;;5.03
76583;BMP280;65462;52.148;7.940;2023-02-02T08:54:09;101195.69;;;5.04
76583;BMP280;65462;52.148;7.940;2023-02-02T08:56:34;101204.09;;;5.06
76583;BMP280;65462;52.148;7.940;2023-02-02T08:59:00;101209.31;;;5.06
76583;BMP280;65462;52.148;7.940;2023-02-02T09:01:30;101212.19;;;5.04
76583;BMP280;65462;52.148;7.940;2023-02-02T09:04:04;101213.47;;;5.07
76583;BMP280;65462;52.148;7.940;2023-02-02T09:06:33;101218.22;;;5.10
76583;BMP280;65462;52.148;7.940;2023-02-02T09:08:58;101220.56;;;5.12
76583;BMP280;65462;52.148;7.940;2023-02-02T09:11:24;101232.88;;;5.16
76583;BMP280;65462;52.148;7.940;2023-02-02T09:13:53;101228.44;;;5.17
76583;BMP280;65462;52.148;7.940;2023-02-02T09:16:19;101237.31;;;5.21
76583;BMP280;65462;52.148;7.940;2023-02-02T09:18:45;101238.63;;;5.23
76583;BMP280;65462;52.148;7.940;2023-02-02T09:21:12;101240.97;;;5.25
76583;BMP280;65462;52.148;7.940;2023-02-02T09:23:39;101245.69;;;5.28
76583;BMP280;65462;52.148;7.940;2023-02-02T09:26:17;101242.03;;;5.29
76583;BMP280;65462;52.148;7.940;2023-02-02T09:28:48;101248.06;;;5.29
76583;BMP280;65462;52.148;7.940;2023-02-02T09:31:14;101260.88;;;5.31
76583;BMP280;65462;52.148;7.940;2023-02-02T09:33:39;101256.19;;;5.33
76583;BMP280;65462;52.148;7.940;2023-02-02T09:36:18;101261.94;;;5.35
76583;BMP280;65462;52.148;7.940;2023-02-02T09:38:48;101270.59;;;5.35
76583;BMP280;65462;52.148;7.940;2023-02-02T09:47:00;101266.38;;;5.39
76583;BMP280;65462;52.148;7.940;2023-02-02T09:52:17;101273.47;;;5.39
76583;BMP280;65462;52.148;7.940;2023-02-02T09:54:47;101282.09;;;5.39
76583;BMP280;65462;52.148;7.940;2023-02-02T09:57:28;101286.25;;;5.40
76583;BMP280;65462;52.148;7.940;2023-02-02T09:59:55;101290.97;;;5.43
76583;BMP280;65462;52.148;7.940;2023-02-02T10:02:26;101297.81;;;5.44
76583;BMP280;65462;52.148;7.940;2023-02-02T10:05:22;101297.03;;;5.49
76583;BMP280;65462;52.148;7.940;2023-02-02T10:07:52;101304.38;;;5.52
76583;BMP280;65462;52.148;7.940;2023-02-02T10:10:27;101303.81;;;5.55
76583;BMP280;65462;52.148;7.940;2023-02-02T10:12:58;101310.94;;;5.54
76583;BMP280;65462;52.148;7.940;2023-02-02T10:15:42;101314.03;;;5.56
76583;BMP280;65462;52.148;7.940;2023-02-02T10:20:56;101323.22;;;5.64
76583;BMP280;65462;52.148;7.940;2023-02-02T10:23:32;101316.38;;;5.63
76583;BMP280;65462;52.148;7.940;2023-02-02T10:26:11;101332.91;;;5.68
76583;BMP280;65462;52.148;7.940;2023-02-02T10:29:01;101329.72;;;5.71
76583;BMP280;65462;52.148;7.940;2023-02-02T10:31:37;101322.94;;;5.65
76583;BMP280;65462;52.148;7.940;2023-02-02T10:34:56;101332.38;;;5.77
76583;BMP280;65462;52.148;7.940;2023-02-02T10:37:22;101343.91;;;5.81
76583;BMP280;65462;52.148;7.940;2023-02-02T10:42:47;101345.69;;;5.85
76583;BMP280;65462;52.148;7.940;2023-02-02T10:45:37;101342.59;;;5.83
76583;BMP280;65462;52.148;7.940;2023-02-02T10:48:38;101337.06;;;5.90
76583;BMP280;65462;52.148;7.940;2023-02-02T10:51:02;101341.25;;;5.91
76583;BMP280;65462;52.148;7.940;2023-02-02T10:53:29;101339.16;;;5.93
76583;BMP280;65462;52.148;7.940;2023-02-02T10:58:29;101340.47;;;5.95
76583;BMP280;65462;52.148;7.940;2023-02-02T11:00:57;101342.84;;;5.97
76583;BMP280;65462;52.148;7.940;2023-02-02T11:03:27;101336.00;;;5.96
76583;BMP280;65462;52.148;7.940;2023-02-02T11:05:53;101338.38;;;5.97
76583;BMP280;65462;52.148;7.940;2023-02-02T11:08:45;101335.72;;;6.02
76583;BMP280;65462;52.148;7.940;2023-02-02T11:11:23;101328.09;;;6.01
76583;BMP280;65462;52.148;7.940;2023-02-02T11:16:38;101331.25;;;6.08
76583;BMP280;65462;52.148;7.940;2023-02-02T11:21:44;101335.16;;;6.10
76583;BMP280;65462;52.148;7.940;2023-02-02T11:26:47;101336.50;;;6.13
76583;BMP280;65462;52.148;7.940;2023-02-02T11:29:27;101336.72;;;6.16
76583;BMP280;65462;52.148;7.940;2023-02-02T11:31:53;101343.53;;;6.17
76583;BMP280;65462;52.148;7.940;2023-02-02T11:34:21;101343.53;;;6.17
76583;BMP280;65462;52.148;7.940;2023-02-02T11:37:02;101350.88;;;6.20
76583;BMP280;65462;52.148;7.940;2023-02-02T11:39:28;101364.25;;;6.24
76583;BMP280;65462;52.148;7.940;2023-02-02T11:42:01;101352.97;;;6.23
76583;BMP280;65462;52.148;7.940;2023-02-02T11:44:29;101344.84;;;6.20
76583;BMP280;65462;52.148;7.940;2023-02-02T11:46:56;101350.34;;;6.23
76583;BMP280;65462;52.148;7.940;2023-02-02T11:49:22;101354.78;;;6.28
76583;BMP280;65462;52.148;7.940;2023-02-02T11:51:56;101365.03;;;6.24
76583;BMP280;65462;52.148;7.940;2023-02-02T11:54:27;101361.59;;;6.29
76583;BMP280;65462;52.148;7.940;2023-02-02T11:57:07;101366.31;;;6.32
76583;BMP280;65462;52.148;7.940;2023-02-02T11:59:36;101368.94;;;6.32
76583;BMP280;65462;52.148;7.940;2023-02-02T12:04:36;101363.16;;;6.30
76583;BMP280;65462;52.148;7.940;2023-02-02T12:07:16;101351.91;;;6.29
76583;BMP280;65462;52.148;7.940;2023-02-02T12:09:42;101363.16;;;6.30
76583;BMP280;65462;52.148;7.940;2023-02-02T12:12:28;101363.94;;;6.30
76583;BMP280;65462;52.148;7.940;2023-02-02T12:17:39;101361.88;;;6.32
76583;BMP280;65462;52.148;7.940;2023-02-02T12:28:37;101359.47;;;6.36
76583;BMP280;65462;52.148;7.940;2023-02-02T12:34:21;101349.50;;;6.38
76583;BMP280;65462;52.148;7.940;2023-02-02T12:37:01;101358.19;;;6.39
76583;BMP280;65462;52.148;7.940;2023-02-02T12:42:53;101351.09;;;6.39
76583;BMP280;65462;52.148;7.940;2023-02-02T12:45:37;101353.72;;;6.39
76583;BMP280;65462;52.148;7.940;2023-02-02T13:02:32;101348.94;;;6.41
76583;BMP280;65462;52.148;7.940;2023-02-02T13:07:37;101359.44;;;6.41
76583;BMP280;65462;52.148;7.940;2023-02-02T13:10:25;101351.56;;;6.41
76583;BMP280;65462;52.148;7.940;2023-02-02T13:12:55;101365.50;;;6.42
76583;BMP280;65462;52.148;7.940;2023-02-02T13:15:27;101356.34;;;6.39
76583;BMP280;65462;52.148;7.940;2023-02-02T13:17:58;101364.69;;;6.41
76583;BMP280;65462;52.148;7.940;2023-02-02T13:20:46;101358.91;;;6.44
76583;BMP280;65462;52.148;7.940;2023-02-02T13:23:17;101367.31;;;6.46
76583;BMP280;65462;52.148;7.940;2023-02-02T13:25:51;101364.69;;;6.46
76583;BMP280;65462;52.148;7.940;2023-02-02T13:28:34;101362.34;;;6.45
76583;BMP280;65462;52.148;7.940;2023-02-02T13:31:04;101368.09;;;6.47
76583;BMP280;65462;52.148;7.940;2023-02-02T13:33:33;101358.38;;;6.47
76583;BMP280;65462;52.148;7.940;2023-02-02T13:36:01;101359.97;;;6.48
76583;BMP280;65462;52.148;7.940;2023-02-02T13:38:29;101359.19;;;6.48
76583;BMP280;65462;52.148;7.940;2023-02-02T13:40:57;101366.00;;;6.49
76583;BMP280;65462;52.148;7.940;2023-02-02T13:59:51;101368.91;;;6.42
76583;BMP280;65462;52.148;7.940;2023-02-02T14:02:42;101372.09;;;6.39
76583;BMP280;65462;52.148;7.940;2023-02-02T14:07:47;101378.09;;;6.40
76583;BMP280;65462;52.148;7.940;2023-02-02T14:10:28;101372.59;;;6.36
76583;BMP280;65462;52.148;7.940;2023-02-02T14:16:01;101366.06;;;6.39
76583;BMP280;65462;52.148;7.940;2023-02-02T14:19:12;101367.88;;;6.38
76583;BMP280;65462;52.148;7.940;2023-02-02T14:34:35;101368.94;;;6.32
76583;BMP280;65462;52.148;7.940;2023-02-02T14:37:26;101374.44;;;6.30
76583;BMP280;65462;52.148;7.940;2023-02-02T14:45:47;101389.41;;;6.30
76583;BMP280;65462;52.148;7.940;2023-02-02T14:48:18;101390.97;;;6.31
76583;BMP280;65462;52.148;7.940;2023-02-02T14:50:48;101390.97;;;6.31
76583;BMP280;65462;52.148;7.940;2023-02-02T14:53:22;101388.09;;;6.32
76583;BMP280;65462;52.148;7.940;2023-02-02T15:01:28;101379.44;;;6.27
76583;BMP280;65462;52.148;7.940;2023-02-02T15:03:55;101391.50;;;6.28
76583;BMP280;65462;52.148;7.940;2023-02-02T15:14:33;101398.34;;;6.29
76583;BMP280;65462;52.148;7.940;2023-02-02T15:17:15;101400.41;;;6.27
76583;BMP280;65462;52.148;7.940;2023-02-02T15:19:46;101418.03;;;6.26
76583;BMP280;65462;52.148;7.940;2023-02-02T15:22:33;101409.88;;;6.28
76583;BMP280;65462;52.148;7.940;2023-02-02T15:25:04;101410.16;;;6.26
76583;BMP280;65462;52.148;7.940;2023-02-02T15:27:32;101411.75;;;6.22
76583;BMP280;65462;52.148;7.940;2023-02-02T15:30:03;101419.34;;;6.24
76583;BMP280;65462;52.148;7.940;2023-02-02T15:32:31;101407.53;;;6.21
76583;BMP280;65462;52.148;7.940;2023-02-02T15:35:02;101413.84;;;6.20
76583;BMP280;65462;52.148;7.940;2023-02-02T15:37:35;101403.34;;;6.20
76583;BMP280;65462;52.148;7.940;2023-02-02T15:40:11;101416.72;;;6.19
76583;BMP280;65462;52.148;7.940;2023-02-02T15:42:43;101425.66;;;6.18
76583;BMP280;65462;52.148;7.940;2023-02-02T15:47:53;101425.94;;;6.16
76583;BMP280;65462;52.148;7.940;2023-02-02T15:50:19;101424.34;;;6.15
76583;BMP280;65462;52.148;7.940;2023-02-02T15:52:49;101434.03;;;6.15
76583;BMP280;65462;52.148;7.940;2023-02-02T15:57:47;101414.66;;;6.06
76583;BMP280;65462;52.148;7.940;2023-02-02T16:00:26;101426.72;;;6.12
76583;BMP280;65462;52.148;7.940;2023-02-02T16:03:11;101433.00;;;6.11
76583;BMP280;65462;52.148;7.940;2023-02-02T16:05:43;101431.72;;;6.08
76583;BMP280;65462;52.148;7.940;2023-02-02T16:08:18;101433.03;;;6.06
76583;BMP280;65462;52.148;7.940;2023-02-02T16:10:45;101438.28;;;6.06
76583;BMP280;65462;52.148;7.940;2023-02-02T16:13:31;101426.97;;;6.05
76583;BMP280;65462;52.148;7.940;2023-02-02T16:16:20;101445.59;;;6.04
76583;BMP280;65462;52.148;7.940;2023-02-02T16:18:44;101435.09;;;6.04
76583;BMP280;65462;52.148;7.940;2023-02-02T16:21:24;101430.94;;;6.03
76583;BMP280;65462;52.148;7.940;2023-02-02T16:23:51;101434.59;;;6.02
76583;BMP280;65462;52.148;7.940;2023-02-02T16:26:18;101425.13;;;6.01
76583;BMP280;65462;52.148;7.940;2023-02-02T16:28:45;101439.81;;;6.02
76583;BMP280;65462;52.148;7.940;2023-02-02T16:31:11;101433.78;;;6.01
76583;BMP280;65462;52.148;7.940;2023-02-02T16:33:41;101436.69;;;6.00
76583;BMP280;65462;52.148;7.940;2023-02-02T16:38:44;101439.31;;;6.00
76583;BMP280;65462;52.148;7.940;2023-02-02T16:41:12;101441.94;;;6.00
76583;BMP280;65462;52.148;7.940;2023-02-02T16:43:40;101432.00;;;5.97
76583;BMP280;65462;52.148;7.940;2023-02-02T16:46:13;101445.63;;;5.99
76583;BMP280;65462;52.148;7.940;2023-02-02T16:48:59;101450.34;;;5.97